createdAt,value
2022-09-06T00:02:46.241Z,9.41
2022-09-06T00:05:48.005Z,9.37
2022-09-06T00:08:49.837Z,9.35
2022-09-06T00:11:51.504Z,9.33
2022-09-06T00:14:53.256Z,9.32
2022-09-06T00:17:55.079Z,9.33
2022-09-06T00:20:56.843Z,9.35
2022-09-06T00:23:58.526Z,9.35
2022-09-06T00:27:00.289Z,9.36
2022-09-06T00:30:02.035Z,9.36
2022-09-06T00:33:03.922Z,9.39
2022-09-06T00:36:05.917Z,9.39
2022-09-06T00:39:07.587Z,9.31
2022-09-06T00:42:11.042Z,9.02
2022-09-06T00:45:13.534Z,8.91
2022-09-06T00:48:15.891Z,8.94
2022-09-06T00:51:18.666Z,8.99
2022-09-06T00:54:20.447Z,9.05
2022-09-06T00:57:26.998Z,9.10
2022-09-06T01:00:28.743Z,9.15
2022-09-06T01:03:30.545Z,9.18
2022-09-06T01:06:45.186Z,9.19
2022-09-06T01:10:31.257Z,9.22
2022-09-06T01:13:39.088Z,9.25
2022-09-06T01:16:49.449Z,9.25
2022-09-06T01:20:09.692Z,9.24
2022-09-06T01:23:43.487Z,9.26
2022-09-06T01:27:14.230Z,9.26
2022-09-06T01:30:17.701Z,9.23
2022-09-06T01:33:26.511Z,9.17
2022-09-06T01:36:36.062Z,9.14
2022-09-06T01:39:41.207Z,9.15
2022-09-06T01:42:45.045Z,9.14
2022-09-06T01:46:05.051Z,9.13
2022-09-06T01:49:24.569Z,9.12
2022-09-06T01:52:30.155Z,9.15
2022-09-06T01:55:32.944Z,9.15
2022-09-06T01:59:12.385Z,9.13
2022-09-06T02:02:42.148Z,9.10
2022-09-06T02:05:51.327Z,9.05
2022-09-06T02:09:03.392Z,9.04
2022-09-06T02:12:06.097Z,9.00
2022-09-06T02:15:16.348Z,8.92
2022-09-06T02:18:31.968Z,8.82
2022-09-06T02:21:37.216Z,8.69
2022-09-06T02:24:40.800Z,8.50
2022-09-06T02:27:42.529Z,8.39
2022-09-06T02:30:47.501Z,8.31
2022-09-06T02:33:50.554Z,8.26
2022-09-06T02:36:52.426Z,8.21
2022-09-06T02:39:57.064Z,8.15
2022-09-06T02:42:58.889Z,8.12
2022-09-06T02:46:00.637Z,8.08
2022-09-06T02:49:03.897Z,8.03
2022-09-06T02:52:05.749Z,7.95
2022-09-06T02:55:07.986Z,7.87
2022-09-06T02:58:11.771Z,7.79
2022-09-06T03:01:13.538Z,7.75
2022-09-06T03:04:15.594Z,7.73
2022-09-06T03:07:17.294Z,7.71
2022-09-06T03:10:19.137Z,7.70
2022-09-06T03:13:21.327Z,7.69
2022-09-06T03:16:23.123Z,7.68
2022-09-06T03:19:24.966Z,7.67
2022-09-06T03:22:26.881Z,7.66
2022-09-06T03:25:28.574Z,7.68
2022-09-06T03:28:30.757Z,7.70
2022-09-06T03:31:32.626Z,7.75
2022-09-06T03:34:34.317Z,7.78
2022-09-06T03:37:36.096Z,7.81
2022-09-06T03:40:37.761Z,7.81
2022-09-06T03:43:39.430Z,7.79
2022-09-06T03:46:41.112Z,7.74
2022-09-06T03:49:42.718Z,7.69
2022-09-06T03:52:44.439Z,7.63
2022-09-06T03:55:48.115Z,7.57
2022-09-06T03:58:50.127Z,7.53
2022-09-06T04:01:51.839Z,7.50
2022-09-06T04:04:55.653Z,7.49
2022-09-06T04:07:57.343Z,7.50
2022-09-06T04:10:59.802Z,7.50
2022-09-06T04:14:01.560Z,7.51
2022-09-06T04:17:03.569Z,7.53
2022-09-06T04:20:05.958Z,7.55
2022-09-06T04:23:08.125Z,7.58
2022-09-06T04:26:09.869Z,7.60
2022-09-06T04:29:11.530Z,7.65
2022-09-06T04:32:13.227Z,7.70
2022-09-06T04:35:14.884Z,7.76
2022-09-06T04:38:17.085Z,7.82
2022-09-06T04:41:19.346Z,7.88
2022-09-06T04:44:21.044Z,7.96
2022-09-06T04:47:23.313Z,8.03
2022-09-06T04:50:25.101Z,8.12
2022-09-06T04:53:26.808Z,8.23
2022-09-06T04:56:28.456Z,8.36
2022-09-06T04:59:30.523Z,8.48
2022-09-06T05:02:32.305Z,8.61
2022-09-06T05:05:34.081Z,8.75
2022-09-06T05:08:39.535Z,8.91
2022-09-06T05:11:41.287Z,9.07
2022-09-06T05:14:42.997Z,9.25
2022-09-06T05:17:44.783Z,9.58
2022-09-06T05:20:52.285Z,9.92
2022-09-06T05:23:58.367Z,9.96
2022-09-06T05:27:03.924Z,9.98
2022-09-06T05:30:06.022Z,10.11
2022-09-06T05:33:08.859Z,10.50
2022-09-06T05:36:10.545Z,11.01
2022-09-06T05:39:12.206Z,11.64
2022-09-06T05:42:19.000Z,12.12
2022-09-06T05:45:21.401Z,12.41
2022-09-06T05:48:23.360Z,12.69
2022-09-06T05:51:25.117Z,12.57
2022-09-06T05:54:27.198Z,12.41
2022-09-06T05:57:48.712Z,12.27
2022-09-06T06:00:50.792Z,12.22
2022-09-06T06:03:58.965Z,12.01
2022-09-06T06:07:00.604Z,12.01
2022-09-06T06:10:02.276Z,12.05
2022-09-06T06:13:03.950Z,12.13
2022-09-06T06:16:14.556Z,12.47
2022-09-06T06:19:16.300Z,12.54
2022-09-06T06:22:18.018Z,12.55
2022-09-06T06:25:23.222Z,12.81
2022-09-06T06:28:27.025Z,13.24
2022-09-06T06:31:33.571Z,13.92
2022-09-06T06:34:45.718Z,15.05
2022-09-06T06:37:47.684Z,15.81
2022-09-06T06:40:49.489Z,15.60
2022-09-06T06:44:06.382Z,15.41
2022-09-06T06:47:10.820Z,15.04
2022-09-06T06:50:13.177Z,15.12
2022-09-06T06:53:14.971Z,15.25
2022-09-06T06:56:23.663Z,15.72
2022-09-06T06:59:25.490Z,16.35
2022-09-06T07:02:27.431Z,17.06
2022-09-06T07:08:51.079Z,18.09
2022-09-06T07:11:53.315Z,18.61
2022-09-06T07:14:55.710Z,18.62
2022-09-06T07:17:57.902Z,19.01
2022-09-06T07:24:21.391Z,18.92
2022-09-06T07:30:45.122Z,19.58
2022-09-06T07:33:46.919Z,19.20
2022-09-06T07:36:48.821Z,18.96
2022-09-06T07:39:51.332Z,18.78
2022-09-06T07:42:56.487Z,18.48
2022-09-06T07:46:05.852Z,18.29
2022-09-06T07:49:07.695Z,18.46
2022-09-06T07:55:31.018Z,19.35
2022-09-06T07:58:33.809Z,19.59
2022-09-06T08:01:39.652Z,19.67
2022-09-06T08:04:42.724Z,19.94
2022-09-06T08:07:44.448Z,20.27
2022-09-06T08:10:51.281Z,20.77
2022-09-06T08:13:55.144Z,21.54
2022-09-06T08:16:56.801Z,21.64
2022-09-06T08:19:58.600Z,21.81
2022-09-06T08:23:00.398Z,21.70
2022-09-06T08:26:02.253Z,21.44
2022-09-06T08:29:06.958Z,22.11
2022-09-06T08:32:08.783Z,22.82
2022-09-06T08:35:10.636Z,23.17
2022-09-06T08:38:12.550Z,23.56
2022-09-06T08:41:14.146Z,24.21
2022-09-06T08:47:41.404Z,23.55
2022-09-06T08:50:49.593Z,23.06
2022-09-06T08:53:52.340Z,22.63
2022-09-06T08:57:11.211Z,22.45
2022-09-06T09:00:14.072Z,22.91
2022-09-06T09:03:19.232Z,22.45
2022-09-06T09:06:21.668Z,22.04
2022-09-06T09:09:23.832Z,22.33
2022-09-06T09:12:26.814Z,23.14
2022-09-06T09:15:28.970Z,24.00
2022-09-06T09:18:35.362Z,24.24
2022-09-06T09:21:40.144Z,24.08
2022-09-06T09:24:41.809Z,23.99
2022-09-06T09:27:44.407Z,23.82
2022-09-06T09:30:50.070Z,23.63
2022-09-06T09:33:52.519Z,23.59
2022-09-06T09:40:50.873Z,23.96
2022-09-06T09:44:05.633Z,23.96
2022-09-06T09:47:31.189Z,23.79
2022-09-06T09:50:35.191Z,23.91
2022-09-06T09:53:50.437Z,23.84
2022-09-06T09:56:53.100Z,23.84
2022-09-06T10:00:01.427Z,23.69
2022-09-06T10:03:19.416Z,23.72
2022-09-06T10:09:49.762Z,24.20
2022-09-06T10:13:26.726Z,24.33
2022-09-06T10:16:43.717Z,25.07
2022-09-06T10:19:46.949Z,25.01
2022-09-06T10:23:10.198Z,23.92
2022-09-06T10:26:22.980Z,23.39
2022-09-06T10:29:41.663Z,24.12
2022-09-06T10:33:01.013Z,24.97
2022-09-06T10:36:03.781Z,24.81
2022-09-06T10:39:49.248Z,24.47
2022-09-06T10:42:55.381Z,24.31
2022-09-06T10:45:59.711Z,24.33
2022-09-06T10:49:01.412Z,24.35
2022-09-06T10:52:07.061Z,24.68
2022-09-06T10:55:12.862Z,23.99
2022-09-06T10:58:22.934Z,23.47
2022-09-06T11:01:46.745Z,23.46
2022-09-06T11:11:51.093Z,21.93
2022-09-06T11:14:52.829Z,21.80
2022-09-06T11:18:05.854Z,21.66
2022-09-06T11:21:35.485Z,21.69
2022-09-06T11:24:48.100Z,21.75
2022-09-06T11:27:58.211Z,21.89
2022-09-06T11:31:00.573Z,22.67
2022-09-06T11:34:20.500Z,23.55
2022-09-06T11:37:32.788Z,23.74
2022-09-06T11:40:42.471Z,24.43
2022-09-06T11:43:46.388Z,25.16
2022-09-06T11:46:48.619Z,25.29
2022-09-06T11:49:50.516Z,25.56
2022-09-06T11:52:55.614Z,25.41
2022-09-06T11:56:00.348Z,25.45
2022-09-06T11:59:08.164Z,25.79
2022-09-06T12:02:29.871Z,25.34
2022-09-06T12:05:32.641Z,25.18
2022-09-06T12:08:34.606Z,25.47
2022-09-06T12:11:43.311Z,25.80
2022-09-06T12:14:49.399Z,25.55
2022-09-06T12:17:51.121Z,25.61
2022-09-06T12:20:52.985Z,25.84
2022-09-06T12:23:54.762Z,25.66
2022-09-06T12:27:16.234Z,25.37
2022-09-06T12:30:31.486Z,25.24
2022-09-06T12:33:36.579Z,25.37
2022-09-06T12:36:48.886Z,25.36
2022-09-06T12:39:58.551Z,25.21
2022-09-06T12:43:03.017Z,25.35
2022-09-06T12:46:07.460Z,24.91
2022-09-06T12:49:11.777Z,24.49
2022-09-06T12:52:16.164Z,24.33
2022-09-06T12:55:27.358Z,24.29
2022-09-06T12:58:32.301Z,24.28
2022-09-06T13:01:35.014Z,24.49
2022-09-06T13:04:43.305Z,24.65
2022-09-06T13:07:53.735Z,24.86
2022-09-06T13:10:55.696Z,24.62
2022-09-06T13:13:57.664Z,23.99
2022-09-06T13:17:00.119Z,23.65
2022-09-06T13:20:31.623Z,23.49
2022-09-06T13:23:53.137Z,23.56
2022-09-06T13:26:54.999Z,23.45
2022-09-06T13:30:00.902Z,23.48
2022-09-06T13:33:04.536Z,23.39
2022-09-06T13:36:12.237Z,23.27
2022-09-06T13:39:29.375Z,23.04
2022-09-06T13:42:34.078Z,22.69
2022-09-06T13:45:36.125Z,22.35
2022-09-06T13:48:39.688Z,22.08
2022-09-06T13:51:43.358Z,21.90
2022-09-06T13:54:45.736Z,21.79
2022-09-06T13:57:47.357Z,21.60
2022-09-06T14:00:49.283Z,21.45
2022-09-06T14:03:51.106Z,21.43
2022-09-06T14:06:54.175Z,21.40
2022-09-06T14:09:56.645Z,21.35
2022-09-06T14:12:58.414Z,21.35
2022-09-06T14:16:00.356Z,21.33
2022-09-06T14:19:03.288Z,21.40
2022-09-06T14:22:06.984Z,21.53
2022-09-06T14:25:10.178Z,21.47
2022-09-06T14:28:11.839Z,21.44
2022-09-06T14:31:16.068Z,21.49
2022-09-06T14:34:17.919Z,21.57
2022-09-06T14:37:21.690Z,21.50
2022-09-06T14:40:23.714Z,21.43
2022-09-06T14:43:25.386Z,21.40
2022-09-06T14:46:28.321Z,21.39
2022-09-06T14:49:30.216Z,21.39
2022-09-06T14:52:31.915Z,21.37
2022-09-06T14:55:34.173Z,21.42
2022-09-06T14:58:37.848Z,21.49
2022-09-06T15:01:39.710Z,21.50
2022-09-06T15:04:42.053Z,21.46
2022-09-06T15:07:43.753Z,21.43
2022-09-06T15:10:54.281Z,21.43
2022-09-06T15:13:56.790Z,21.38
2022-09-06T15:17:00.099Z,21.36
2022-09-06T15:20:02.258Z,21.22
2022-09-06T15:26:27.591Z,21.05
2022-09-06T15:29:29.496Z,21.11
2022-09-06T15:32:32.042Z,21.27
2022-09-06T15:35:33.959Z,21.59
2022-09-06T15:38:42.897Z,21.86
2022-09-06T15:41:44.655Z,21.94
2022-09-06T15:44:46.371Z,22.14
2022-09-06T15:47:48.030Z,22.33
2022-09-06T15:50:51.634Z,22.55
2022-09-06T15:53:53.807Z,22.60
2022-09-06T15:56:58.200Z,22.53
2022-09-06T16:00:00.115Z,22.43
2022-09-06T16:03:02.054Z,22.21
2022-09-06T16:09:28.530Z,21.33
2022-09-06T16:12:30.241Z,21.05
2022-09-06T16:15:32.117Z,20.96
2022-09-06T16:18:39.098Z,20.91
2022-09-06T16:21:43.042Z,20.80
2022-09-06T16:24:44.887Z,20.70
2022-09-06T16:27:46.662Z,20.60
2022-09-06T16:30:48.487Z,20.40
2022-09-06T16:33:51.041Z,20.19
2022-09-06T16:36:53.811Z,20.04
2022-09-06T16:39:56.236Z,19.86
2022-09-06T16:42:58.077Z,19.64
2022-09-06T16:46:01.603Z,19.43
2022-09-06T16:49:04.538Z,19.28
2022-09-06T16:52:06.673Z,19.14
2022-09-06T16:55:08.370Z,18.98
2022-09-06T16:58:10.684Z,18.83
2022-09-06T17:01:12.507Z,18.66
2022-09-06T17:04:15.108Z,18.50
2022-09-06T17:07:17.354Z,18.36
2022-09-06T17:10:19.085Z,18.23
2022-09-06T17:13:20.934Z,18.09
2022-09-06T17:16:42.522Z,17.96
2022-09-06T17:19:44.496Z,17.82
2022-09-06T17:22:50.635Z,17.69
2022-09-06T17:25:52.901Z,17.56
2022-09-06T17:28:54.908Z,17.45
2022-09-06T17:31:56.896Z,17.31
2022-09-06T17:34:58.805Z,17.18
2022-09-06T17:38:00.604Z,17.05
2022-09-06T17:41:02.396Z,16.93
2022-09-06T17:44:06.317Z,16.83
2022-09-06T17:47:12.834Z,16.73
2022-09-06T17:50:15.657Z,16.65
2022-09-06T17:53:17.362Z,16.57
2022-09-06T17:56:20.118Z,16.47
2022-09-06T17:59:22.172Z,16.38
2022-09-06T18:02:23.973Z,16.31
2022-09-06T18:05:25.798Z,16.23
2022-09-06T18:08:27.565Z,16.14
2022-09-06T18:11:32.224Z,16.05
2022-09-06T18:14:34.453Z,15.95
2022-09-06T18:17:36.378Z,15.86
2022-09-06T18:20:39.150Z,15.80
2022-09-06T18:23:41.104Z,15.74
2022-09-06T18:26:43.533Z,15.71
2022-09-06T18:29:45.222Z,15.67
2022-09-06T18:32:46.892Z,15.63
2022-09-06T18:35:50.450Z,15.62
2022-09-06T18:38:52.370Z,15.59
2022-09-06T18:42:00.390Z,15.57
2022-09-06T18:45:02.669Z,15.54
2022-09-06T18:48:05.433Z,15.54
2022-09-06T18:51:11.434Z,15.53
2022-09-06T18:54:32.634Z,15.55
2022-09-06T18:57:34.363Z,15.55
2022-09-06T19:00:36.872Z,15.56
2022-09-06T19:03:39.532Z,15.56
2022-09-06T19:06:42.533Z,15.57
2022-09-06T19:09:44.576Z,15.58
2022-09-06T19:12:49.166Z,15.55
2022-09-06T19:15:53.074Z,15.51
2022-09-06T19:18:56.184Z,15.46
2022-09-06T19:21:58.605Z,15.41
2022-09-06T19:25:00.458Z,15.37
2022-09-06T19:28:02.329Z,15.31
2022-09-06T19:31:09.934Z,15.25
2022-09-06T19:34:13.539Z,15.20
2022-09-06T19:37:17.444Z,15.16
2022-09-06T19:40:19.215Z,15.08
2022-09-06T19:43:21.081Z,14.99
2022-09-06T19:46:24.007Z,14.92
2022-09-06T19:49:26.126Z,14.86
2022-09-06T19:52:27.935Z,14.80
2022-09-06T19:55:34.374Z,14.75
2022-09-06T19:58:36.235Z,14.67
2022-09-06T20:01:39.525Z,14.59
2022-09-06T20:04:41.629Z,14.50
2022-09-06T20:07:43.490Z,14.38
2022-09-06T20:10:55.773Z,14.28
2022-09-06T20:13:57.938Z,14.17
2022-09-06T20:17:33.610Z,14.06
2022-09-06T20:20:35.780Z,13.97
2022-09-06T20:23:37.546Z,13.89
2022-09-06T20:26:40.447Z,13.80
2022-09-06T20:29:42.199Z,13.70
2022-09-06T20:32:44.073Z,13.62
2022-09-06T20:35:55.089Z,13.55
2022-09-06T20:38:57.100Z,13.47
2022-09-06T20:41:58.869Z,13.39
2022-09-06T20:45:00.762Z,13.29
2022-09-06T20:48:02.657Z,13.22
2022-09-06T20:51:08.524Z,13.17
2022-09-06T20:54:11.164Z,13.10
2022-09-06T20:57:13.145Z,13.04
2022-09-06T21:00:15.296Z,13.00
2022-09-06T21:03:17.219Z,12.95
2022-09-06T21:06:20.406Z,12.89
2022-09-06T21:09:22.245Z,12.82
2022-09-06T21:12:24.008Z,12.74
2022-09-06T21:15:25.802Z,12.67
2022-09-06T21:18:29.212Z,12.61
2022-09-06T21:21:32.055Z,12.52
2022-09-06T21:24:34.609Z,12.44
2022-09-06T21:27:37.994Z,12.37
2022-09-06T21:30:39.757Z,12.30
2022-09-06T21:33:46.467Z,12.28
2022-09-06T21:36:48.297Z,12.26
2022-09-06T21:39:50.083Z,12.25
2022-09-06T21:42:51.897Z,12.23
2022-09-06T21:45:53.660Z,12.23
2022-09-06T21:48:55.757Z,12.25
2022-09-06T21:51:57.554Z,12.29
2022-09-06T21:54:59.590Z,12.31
2022-09-06T21:58:01.645Z,12.33
2022-09-06T22:01:04.791Z,12.34
2022-09-06T22:04:07.322Z,12.36
2022-09-06T22:07:09.432Z,12.40
2022-09-06T22:10:11.325Z,12.43
2022-09-06T22:13:13.362Z,12.46
2022-09-06T22:16:16.586Z,12.48
2022-09-06T22:19:18.551Z,12.48
2022-09-06T22:22:20.397Z,12.48
2022-09-06T22:25:22.210Z,12.45
2022-09-06T22:28:24.054Z,12.42
2022-09-06T22:31:27.317Z,12.38
2022-09-06T22:34:29.374Z,12.34
2022-09-06T22:37:31.537Z,12.29
2022-09-06T22:40:33.524Z,12.25
2022-09-06T22:43:35.917Z,12.20
2022-09-06T22:46:38.446Z,12.16
2022-09-06T22:49:40.281Z,12.11
2022-09-06T22:52:42.167Z,12.07
2022-09-06T22:55:47.517Z,12.04
2022-09-06T22:58:49.339Z,12.03
2022-09-06T23:01:51.238Z,12.02
2022-09-06T23:05:12.939Z,12.01
2022-09-06T23:08:15.904Z,11.99
2022-09-06T23:11:19.013Z,11.98
2022-09-06T23:14:20.994Z,11.96
2022-09-06T23:17:22.791Z,11.96
2022-09-06T23:20:24.646Z,11.95
2022-09-06T23:23:26.436Z,11.94
2022-09-06T23:26:31.608Z,11.93
2022-09-06T23:29:34.521Z,11.90
2022-09-06T23:32:36.468Z,11.90
2022-09-06T23:35:39.443Z,11.88
2022-09-06T23:38:42.807Z,11.85
2022-09-06T23:41:44.737Z,11.81
2022-09-06T23:44:46.631Z,11.75
2022-09-06T23:47:48.518Z,11.70
2022-09-06T23:50:50.798Z,11.65
2022-09-06T23:53:52.885Z,11.58
2022-09-06T23:56:54.745Z,11.52
2022-09-06T23:59:56.578Z,11.47
